Skip to content
You are here: Gozo Weather
Gozo Weather Station for the very latest live weather conditions from Gozo and Malta
 
 TIME   TEMPERATURE   WINDSPEED   DIRECTION   HUMIDITY   BAROMETER   RAINFALL 
2:30 29.1°C (84.4°F) 18.5 kmh (11.5 mph) SW 57% 1019.0hPa (30.09 inHg) 0.0mm (0.00 in.)
1:30 28.8°C (83.8 °F) 16.7 kmh (10.4 mph) N 59% 1020.0hPa (30.12 inHg) 0.0mm (0.00 in.)
12:30 28.7°C (83.7 °F) 18.5 kmh (11.5 mph) NNE 60% 1020.0hPa (30.12 inHg) 0.0mm (0.00 in.)
11:30 28.3°C (82.9 °F) 18.5 kmh (11.5 mph) WSW 59% 1020.0hPa (30.12 inHg) 0.0mm (0.00 in.)
10:30 28.1°C (82.6 °F) 16.7 kmh (10.4 mph) SW 66% 1020.0hPa (30.12 inHg) 0.0mm (0.00 in.)
9:30 26.6°C (79.9 °F) 14.8 kmh (9.2 mph) WNW 74% 1020.0hPa (30.12 inHg) 0.0mm (0.00 in.)
8:30 25.9°C (78.6 °F) 11.1 kmh (6.9 mph) NNW 77% 1019.0hPa (30.09 inHg) 0.0mm (0.00 in.)
7:24 25.4°C (77.7 °F) 0.0 kmh (0.0 mph) S 73% 1019.0hPa (30.09 inHg) 0.0mm (0.00 in.)
6:24 25.3°C (77.5 °F) 0.0 kmh (0.0 mph) S 72% 1018.0hPa (30.06 inHg) 0.0mm (0.00 in.)
5:24 25.4°C (77.7 °F) 0.0 kmh (0.0 mph) SW 72% 1018.0hPa (30.06 inHg) 0.0mm (0.00 in.)
4:24 25.5°C (77.9 °F) 0.0 kmh (0.0 mph) SW 71% 1018.0hPa (30.06 inHg) 0.0mm (0.00 in.)
3:24 25.6°C (78.1 °F) 0.0 kmh (0.0 mph) SW 71% 1018.0hPa (30.06 inHg) 0.0mm (0.00 in.)
2:24 25.7°C (78.3 °F) 0.0 kmh (0.0 mph) SW 71% 1019.0hPa (30.09 inHg) 0.0mm (0.00 in.)
1:24 25.9°C (78.6 °F) 0.0 kmh (0.0 mph) SSW 71% 1019.0hPa (30.09 inHg) 0.0mm (0.00 in.)
12:24 26.0°C (78.8 °F) 0.0 kmh (0.0 mph) S 71% 1019.0hPa (30.09 inHg) 0.0mm (0.00 in.)
11:24 25.9°C (78.6 °F) 0.0 kmh (0.0 mph) S 72% 1019.0hPa (30.09 inHg) 0.0mm (0.00 in.)
10:17 25.7°C (78.3 °F) 3.7 kmh (2.3 mph) SW 70% 1019.0hPa (30.09 inHg) 0.0mm (0.00 in.)
9:17 26.0°C (78.8 °F) 11.1 kmh (6.9 mph) SSW 69% 1018.0hPa (30.06 inHg) 0.0mm (0.00 in.)
8:17 26.6°C (79.9 °F) 14.8 kmh (9.2 mph) SW 65% 1018.0hPa (30.06 inHg) 0.0mm (0.00 in.)
7:17 27.2°C (81.0 °F) 11.1 kmh (6.9 mph) SW 60% 1017.0hPa (30.03 inHg) 0.0mm (0.00 in.)
6:17 29.0°C (84.2 °F) 20.4 kmh (12.7 mph) WSW 57% 1018.0hPa (30.06 inHg) 0.0mm (0.00 in.)
5:17 29.2°C (84.6 °F) 13.0 kmh (8.1 mph) SSW 56% 1018.0hPa (30.06 inHg) 0.0mm (0.00 in.)
4:17 28.7°C (83.7 °F) 16.7 kmh (10.4 mph) WSW 60% 1018.0hPa (30.06 inHg) 0.0mm (0.00 in.)
3:17 29.2°C (84.6 °F) 16.7 kmh (10.4 mph) SW 58% 1018.0hPa (30.06 inHg) 0.0mm (0.00 in.)

You need the latest version of Flash Player to view some of our content.


Why not download and install the latest version now?
It will only take you a moment and will ensure that you can view all the latest flash designed websites.

Translate this page

Animated Satellite

Click per aprire http://www.gozo.ws/Animation.php
copyright 2015 EUMETSAT

European Lightning Activity


Please click image for full size

Sponsored Links